Time;durP1;ratioP1;P1;durP2;ratioP2;P2;SDS_P1;SDS_P2;PMS_P1;PMS_P2;Temp;Humidity;BMP_temperature;BMP_pressure;BME280_temperature;BME280_humidity;BME280_pressure;Samples;Min_cycle;Max_cycle;Signal;HPM_P1;HPM_P2
2024/02/15 00:00:45;;;;;;;16.07;6.50;;;13.70;99.90;;;;;;5115130;28;20235;-85
2024/02/15 00:03:13;;;;;;;11.50;5.90;;;13.70;99.90;;;;;;5097243;28;20543;-85
2024/02/15 00:05:39;;;;;;;13.53;6.33;;;13.60;99.90;;;;;;5097014;28;20336;-84
2024/02/15 00:08:06;;;;;;;17.83;6.47;;;13.60;99.90;;;;;;5097515;28;20702;-84
2024/02/15 00:10:32;;;;;;;14.27;6.00;;;13.60;99.90;;;;;;5096698;28;20171;-84
2024/02/15 00:12:58;;;;;;;11.03;5.07;;;13.60;99.90;;;;;;5097039;28;20185;-84
2024/02/15 00:15:24;;;;;;;13.93;5.73;;;13.60;99.90;;;;;;5096708;28;20214;-84
2024/02/15 00:17:50;;;;;;;11.40;5.30;;;13.60;99.90;;;;;;5097447;28;20179;-85
2024/02/15 00:20:17;;;;;;;14.03;5.70;;;13.60;99.90;;;;;;5097008;28;20174;-84
2024/02/15 00:22:43;;;;;;;13.30;4.87;;;13.60;99.90;;;;;;5096958;28;20218;-84
2024/02/15 00:25:10;;;;;;;13.87;5.87;;;13.60;99.90;;;;;;5096726;28;20679;-84
2024/02/15 00:27:36;;;;;;;14.13;5.50;;;13.50;99.90;;;;;;5097075;28;20190;-82
2024/02/15 00:30:07;;;;;;;9.53;4.93;;;13.60;99.90;;;;;;5096833;28;20607;-84
2024/02/15 00:32:33;;;;;;;13.70;5.40;;;13.60;99.90;;;;;;5096665;28;20175;-84
2024/02/15 00:34:59;;;;;;;12.37;4.63;;;13.70;99.90;;;;;;5096593;28;20204;-84
2024/02/15 00:37:25;;;;;;;11.00;5.17;;;13.80;99.90;;;;;;5096462;28;20190;-84
2024/02/15 00:39:50;;;;;;;9.93;4.53;;;13.70;99.90;;;;;;5096423;28;20164;-88
2024/02/15 00:42:16;;;;;;;13.50;4.27;;;13.60;99.90;;;;;;5096267;28;20175;-83
2024/02/15 00:44:42;;;;;;;11.27;4.03;;;13.70;99.90;;;;;;5096609;28;20179;-85
2024/02/15 00:47:12;;;;;;;8.20;4.20;;;13.60;99.90;;;;;;5096351;28;20186;-84
2024/02/15 00:49:37;;;;;;;9.70;4.00;;;13.60;99.90;;;;;;5095987;28;20188;-83
2024/02/15 00:52:03;;;;;;;10.63;3.97;;;13.60;99.90;;;;;;5096170;28;20167;-83
2024/02/15 00:54:29;;;;;;;13.03;4.33;;;13.60;99.90;;;;;;5095866;28;20163;-84
2024/02/15 00:56:55;;;;;;;11.23;3.93;;;13.70;99.90;;;;;;5096137;28;20380;-85
2024/02/15 00:59:20;;;;;;;11.53;4.27;;;13.60;99.90;;;;;;5096157;28;20191;-84
2024/02/15 01:01:47;;;;;;;12.03;4.83;;;13.70;99.90;;;;;;5096235;28;20191;-85
2024/02/15 01:04:13;;;;;;;12.43;4.20;;;13.70;99.90;;;;;;5096249;28;20171;-84
2024/02/15 01:06:39;;;;;;;10.63;3.33;;;13.70;99.90;;;;;;5095823;28;20191;-85
2024/02/15 01:09:04;;;;;;;10.33;4.00;;;13.70;99.90;;;;;;5096434;28;20180;-83
2024/02/15 01:11:35;;;;;;;7.37;3.20;;;13.70;99.90;;;;;;5096013;28;20173;-84
2024/02/15 01:14:01;;;;;;;8.10;3.73;;;13.70;99.90;;;;;;5095980;28;20183;-84
2024/02/15 01:16:26;;;;;;;9.50;3.70;;;13.70;99.90;;;;;;5095764;28;20222;-85
2024/02/15 01:18:52;;;;;;;9.07;3.37;;;13.80;99.90;;;;;;5095961;28;20626;-84
2024/02/15 01:21:19;;;;;;;9.03;3.23;;;13.80;99.90;;;;;;5095612;28;20199;-85
2024/02/15 01:23:46;;;;;;;8.57;3.20;;;13.80;99.90;;;;;;5095932;28;20187;-83
2024/02/15 01:26:14;;;;;;;7.87;3.37;;;13.80;99.90;;;;;;5095830;28;20645;-84
2024/02/15 01:28:43;;;;;;;7.27;3.17;;;13.70;99.90;;;;;;5095367;28;20175;-84
2024/02/15 01:31:10;;;;;;;7.47;2.97;;;13.70;99.90;;;;;;5095612;28;20175;-84
2024/02/15 01:33:36;;;;;;;8.17;3.20;;;13.70;99.90;;;;;;5095311;28;20175;-84
2024/02/15 01:36:03;;;;;;;10.27;2.90;;;13.80;99.90;;;;;;5095367;28;20225;-84
2024/02/15 01:38:29;;;;;;;8.00;3.00;;;13.70;99.90;;;;;;5095353;28;20171;-83
2024/02/15 01:40:54;;;;;;;11.17;3.37;;;13.70;99.90;;;;;;5095903;28;20182;-84
2024/02/15 01:43:20;;;;;;;8.77;2.67;;;13.70;99.90;;;;;;5095280;28;20202;-84
2024/02/15 01:45:46;;;;;;;7.73;2.77;;;13.70;99.90;;;;;;5095644;28;20179;-84
2024/02/15 01:48:15;;;;;;;5.17;2.80;;;13.70;99.90;;;;;;5095696;28;20179;-83
2024/02/15 01:50:41;;;;;;;8.03;2.70;;;13.60;99.90;;;;;;5113320;28;20235;-83
2024/02/15 01:53:08;;;;;;;9.53;2.93;;;13.70;99.90;;;;;;5095038;28;20175;-84
2024/02/15 01:55:34;;;;;;;6.10;2.17;;;13.70;99.90;;;;;;5113599;28;20211;-84
2024/02/15 01:58:01;;;;;;;8.37;2.93;;;13.60;99.90;;;;;;5095012;28;20164;-84
2024/02/15 02:00:27;;;;;;;8.70;3.20;;;13.60;99.90;;;;;;5094645;28;20215;-83
2024/02/15 02:02:55;;;;;;;8.57;2.77;;;13.60;99.90;;;;;;5113471;28;20216;-83
2024/02/15 02:05:21;;;;;;;7.93;3.27;;;13.60;99.90;;;;;;5095108;28;20181;-83
2024/02/15 02:07:46;;;;;;;9.20;2.90;;;13.60;99.90;;;;;;5095183;28;20167;-84
2024/02/15 02:10:12;;;;;;;7.57;2.33;;;13.60;99.90;;;;;;5095307;28;20274;-84
2024/02/15 02:12:39;;;;;;;5.83;2.43;;;13.60;99.90;;;;;;5095387;28;20169;-83
2024/02/15 02:15:11;;;;;;;6.27;2.70;;;13.60;99.90;;;;;;5095192;28;20203;-88
2024/02/15 02:17:37;;;;;;;9.53;2.70;;;13.60;99.90;;;;;;5095047;28;20183;-83
2024/02/15 02:20:07;;;;;;;7.70;2.60;;;13.60;99.90;;;;;;5095116;28;20176;-83
2024/02/15 02:22:35;;;;;;;6.93;2.40;;;13.60;99.90;;;;;;5113362;28;20167;-84
2024/02/15 02:25:08;;;;;;;9.40;2.70;;;13.70;99.90;;;;;;5095260;28;20196;-84
2024/02/15 02:27:34;;;;;;;6.93;2.50;;;13.70;99.90;;;;;;5094972;28;20168;-83
2024/02/15 02:30:00;;;;;;;5.40;2.43;;;13.70;99.90;;;;;;5095020;28;20183;-84
2024/02/15 02:32:27;;;;;;;4.90;2.60;;;13.80;99.90;;;;;;5095138;28;20171;-83
2024/02/15 02:34:57;;;;;;;5.60;2.50;;;13.70;99.90;;;;;;5094422;28;20205;-83
2024/02/15 02:37:24;;;;;;;7.43;2.63;;;13.70;99.90;;;;;;5095140;28;20174;-83
2024/02/15 02:39:50;;;;;;;8.63;2.70;;;13.60;99.90;;;;;;5094838;28;20639;-84
2024/02/15 02:42:15;;;;;;;4.50;2.23;;;13.70;99.90;;;;;;5113128;28;20179;-84
2024/02/15 02:44:41;;;;;;;6.80;2.67;;;13.70;99.90;;;;;;5095116;28;20173;-84
2024/02/15 02:47:07;;;;;;;9.37;3.00;;;13.80;99.90;;;;;;5094924;28;20215;-84
2024/02/15 02:49:35;;;;;;;6.03;2.40;;;13.70;99.90;;;;;;5094659;28;20186;-83
2024/02/15 02:52:01;;;;;;;6.67;2.67;;;13.80;99.90;;;;;;5095192;28;20163;-84
2024/02/15 02:54:26;;;;;;;7.40;2.50;;;13.80;99.90;;;;;;5094649;28;20180;-83
2024/02/15 02:56:52;;;;;;;7.20;2.13;;;13.80;99.90;;;;;;5095298;28;20183;-84
2024/02/15 02:59:18;;;;;;;7.70;2.60;;;13.70;99.90;;;;;;5094657;28;20192;-85
2024/02/15 03:01:43;;;;;;;8.43;2.40;;;13.70;99.90;;;;;;5094855;28;20192;-83
2024/02/15 03:04:12;;;;;;;9.17;2.80;;;13.80;99.90;;;;;;5095923;28;20255;-84
2024/02/15 03:06:38;;;;;;;6.33;2.33;;;13.70;99.90;;;;;;5097512;28;20174;-83
2024/02/15 03:09:06;;;;;;;5.70;2.20;;;13.70;99.90;;;;;;5098033;28;20260;-83
2024/02/15 03:11:35;;;;;;;7.70;2.83;;;13.70;99.90;;;;;;5097584;28;20173;-84
2024/02/15 03:14:04;;;;;;;5.90;2.40;;;13.80;99.90;;;;;;5099872;28;20173;-84
2024/02/15 03:16:31;;;;;;;6.73;2.67;;;13.70;99.90;;;;;;5098202;28;20220;-83
2024/02/15 03:18:56;;;;;;;6.03;2.80;;;13.70;99.90;;;;;;5097970;28;20175;-83
2024/02/15 03:21:22;;;;;;;7.93;2.57;;;13.70;99.90;;;;;;5098423;28;20540;-82
2024/02/15 03:23:47;;;;;;;5.97;2.90;;;13.60;99.90;;;;;;5098234;28;20653;-84
2024/02/15 03:26:14;;;;;;;6.17;2.43;;;13.60;99.90;;;;;;5098408;28;20168;-88
2024/02/15 03:28:39;;;;;;;7.23;3.03;;;13.50;99.90;;;;;;5116498;28;20623;-84
2024/02/15 03:31:05;;;;;;;6.47;2.70;;;13.50;99.90;;;;;;5098009;28;20223;-83
2024/02/15 03:33:34;;;;;;;6.67;2.37;;;13.60;99.90;;;;;;5098036;28;20177;-85
2024/02/15 03:36:00;;;;;;;7.03;2.80;;;13.50;99.90;;;;;;5098304;28;20222;-87
2024/02/15 03:38:29;;;;;;;5.53;2.57;;;13.50;99.90;;;;;;5098069;28;20172;-84
2024/02/15 03:40:55;;;;;;;8.23;2.37;;;13.60;99.90;;;;;;5097922;28;20613;-84
2024/02/15 03:43:21;;;;;;;6.97;3.13;;;13.70;99.90;;;;;;5097641;28;20222;-84
2024/02/15 03:45:46;;;;;;;5.87;2.50;;;13.60;99.90;;;;;;5097567;28;20544;-88
2024/02/15 03:48:12;;;;;;;7.10;3.00;;;13.60;99.90;;;;;;5097725;28;20570;-83
2024/02/15 03:50:38;;;;;;;6.30;2.80;;;13.50;99.90;;;;;;5115882;28;20171;-83
2024/02/15 03:53:04;;;;;;;6.53;2.63;;;13.50;99.90;;;;;;5097815;28;20171;-84
2024/02/15 03:55:30;;;;;;;7.50;2.83;;;13.40;99.90;;;;;;5097989;28;20207;-84
2024/02/15 03:57:57;;;;;;;9.23;2.50;;;13.50;99.90;;;;;;5098882;28;20307;-84
2024/02/15 04:00:24;;;;;;;7.00;2.90;;;13.40;99.90;;;;;;5097250;28;20186;-84
2024/02/15 04:02:50;;;;;;;7.90;2.60;;;13.40;99.90;;;;;;5097214;28;20266;-83
2024/02/15 04:05:18;;;;;;;6.87;2.33;;;13.40;99.90;;;;;;5097618;28;20262;-84
2024/02/15 04:07:44;;;;;;;9.60;3.10;;;13.30;99.90;;;;;;5097375;28;20204;-83
2024/02/15 04:10:10;;;;;;;6.03;2.77;;;13.30;99.90;;;;;;5097311;28;20223;-83
2024/02/15 04:12:36;;;;;;;6.17;2.60;;;13.30;99.90;;;;;;5097185;28;20622;-84
2024/02/15 04:15:07;;;;;;;10.90;3.00;;;13.30;99.90;;;;;;5096919;28;20237;-84
2024/02/15 04:17:34;;;;;;;7.10;3.27;;;13.20;99.90;;;;;;5115309;28;20171;-83
2024/02/15 04:20:01;;;;;;;6.17;2.63;;;13.10;99.90;;;;;;5097286;28;20183;-84
2024/02/15 04:22:26;;;;;;;8.60;2.73;;;13.10;99.90;;;;;;5096775;28;20257;-83
2024/02/15 04:24:52;;;;;;;7.27;2.93;;;13.10;99.90;;;;;;5096455;28;20262;-84
2024/02/15 04:27:20;;;;;;;7.40;3.10;;;13.20;99.90;;;;;;5096915;28;20206;-83
2024/02/15 04:29:46;;;;;;;8.43;3.20;;;13.10;99.90;;;;;;5096923;28;20179;-83
2024/02/15 04:32:13;;;;;;;6.07;2.97;;;13.10;99.90;;;;;;5096770;28;20564;-83
2024/02/15 04:34:39;;;;;;;7.57;3.40;;;13.20;99.90;;;;;;5096826;28;20185;-83
2024/02/15 04:37:08;;;;;;;6.57;3.23;;;13.10;99.90;;;;;;5096722;28;20198;-85
2024/02/15 04:39:35;;;;;;;11.33;3.40;;;13.10;99.90;;;;;;5096608;28;20221;-84
2024/02/15 04:42:11;;;;;;;7.50;3.00;;;13.10;99.90;;;;;;5114936;28;20216;-84
2024/02/15 04:44:39;;;;;;;7.60;3.27;;;13.30;99.90;;;;;;5096324;28;20228;-85
2024/02/15 04:47:05;;;;;;;7.57;3.07;;;13.30;99.90;;;;;;5096536;28;20181;-85
2024/02/15 04:49:31;;;;;;;9.37;2.90;;;13.30;99.90;;;;;;5096331;28;20172;-85
2024/02/15 04:52:02;;;;;;;5.93;2.87;;;13.30;99.90;;;;;;5096507;28;20200;-86
2024/02/15 04:54:28;;;;;;;7.00;2.77;;;13.40;99.90;;;;;;5096271;28;20221;-84
2024/02/15 04:56:54;;;;;;;6.57;2.60;;;13.40;99.90;;;;;;5096822;28;20241;-83
2024/02/15 04:59:21;;;;;;;6.93;2.37;;;13.40;99.90;;;;;;5096178;28;20551;-83
2024/02/15 05:01:49;;;;;;;8.00;2.53;;;13.30;99.90;;;;;;5095619;28;20195;-84
2024/02/15 05:04:15;;;;;;;5.53;3.00;;;13.30;99.90;;;;;;5095985;28;20168;-88
2024/02/15 05:06:40;;;;;;;4.77;2.77;;;13.30;99.90;;;;;;5095835;28;20182;-85
2024/02/15 05:09:12;;;;;;;8.70;3.07;;;13.30;99.90;;;;;;5096113;28;20174;-85
2024/02/15 05:11:41;;;;;;;7.67;3.00;;;13.30;99.90;;;;;;5095748;28;20168;-84
2024/02/15 05:14:07;;;;;;;6.80;2.87;;;13.30;99.90;;;;;;5114138;28;20196;-84
2024/02/15 05:16:41;;;;;;;5.63;2.30;;;13.20;99.90;;;;;;5095623;28;20740;-83
2024/02/15 05:19:08;;;;;;;8.07;2.50;;;13.30;99.90;;;;;;5096190;28;20167;-85
2024/02/15 05:21:33;;;;;;;5.70;2.33;;;13.30;99.90;;;;;;5095640;28;20201;-84
2024/02/15 05:23:59;;;;;;;6.27;2.60;;;13.30;99.90;;;;;;5095683;28;20624;-84
2024/02/15 05:26:25;;;;;;;6.00;2.73;;;13.30;99.90;;;;;;5113930;28;20269;-83
2024/02/15 05:28:50;;;;;;;6.10;2.27;;;13.30;99.90;;;;;;5095421;28;20215;-84
2024/02/15 05:31:21;;;;;;;7.47;2.30;;;13.30;99.90;;;;;;5095590;28;20179;-83
2024/02/15 05:33:47;;;;;;;6.17;2.10;;;13.30;99.90;;;;;;5095351;28;20616;-83
2024/02/15 05:36:14;;;;;;;5.63;2.40;;;13.40;99.90;;;;;;5094988;28;20244;-84
2024/02/15 05:38:41;;;;;;;6.73;2.00;;;13.40;99.90;;;;;;5095472;28;20694;-84
2024/02/15 05:41:10;;;;;;;4.90;1.90;;;13.40;99.90;;;;;;5095610;28;20274;-83
2024/02/15 05:43:38;;;;;;;4.80;2.00;;;13.50;99.90;;;;;;5095107;28;20182;-83
2024/02/15 05:46:06;;;;;;;7.27;1.93;;;13.60;99.90;;;;;;5095464;28;20184;-84
2024/02/15 05:48:35;;;;;;;6.07;2.20;;;13.60;99.90;;;;;;5095420;28;20225;-85
2024/02/15 05:51:01;;;;;;;4.93;1.80;;;13.70;99.90;;;;;;5095456;28;20209;-84
2024/02/15 05:53:27;;;;;;;8.10;2.13;;;13.70;99.90;;;;;;5095461;28;20182;-84
2024/02/15 05:55:52;;;;;;;6.20;2.00;;;13.80;99.90;;;;;;5094735;28;20578;-84
2024/02/15 05:58:18;;;;;;;5.87;2.03;;;13.80;99.90;;;;;;5094937;28;20287;-83
2024/02/15 06:00:50;;;;;;;5.17;2.17;;;13.90;99.90;;;;;;5098515;28;20201;-87
2024/02/15 06:03:16;;;;;;;5.50;1.90;;;13.80;99.90;;;;;;5096370;28;20179;-83
2024/02/15 06:05:43;;;;;;;3.93;1.63;;;13.70;99.90;;;;;;5096292;28;20232;-83
2024/02/15 06:08:10;;;;;;;4.80;1.60;;;13.80;99.90;;;;;;5097079;28;20171;-84
2024/02/15 06:10:36;;;;;;;6.00;2.03;;;13.80;99.90;;;;;;5095843;28;20320;-83
2024/02/15 06:13:02;;;;;;;4.70;1.97;;;13.70;99.90;;;;;;5095039;28;20284;-83
2024/02/15 06:15:28;;;;;;;6.63;2.30;;;13.70;99.90;;;;;;5095526;28;20690;-89
2024/02/15 06:17:53;;;;;;;4.97;1.93;;;13.70;99.90;;;;;;5095214;28;20171;-84
2024/02/15 06:20:19;;;;;;;7.30;2.20;;;13.70;99.90;;;;;;5095058;28;20176;-84
2024/02/15 06:22:46;;;;;;;3.77;1.30;;;13.70;99.90;;;;;;5095052;28;20168;-83
2024/02/15 06:25:20;;;;;;;5.30;1.80;;;13.70;99.90;;;;;;5094695;28;20171;-84
2024/02/15 06:27:48;;;;;;;6.60;2.33;;;13.80;99.90;;;;;;5094709;28;20577;-83
2024/02/15 06:41:12;;;;;;;5.43;1.83;;;13.80;99.90;;;;;;5113008;28;20242;-88
2024/02/15 06:43:39;;;;;;;5.47;2.37;;;13.80;99.90;;;;;;5094360;28;20169;-84
2024/02/15 06:46:07;;;;;;;4.97;1.60;;;13.80;99.90;;;;;;5094453;28;20185;-84
2024/02/15 06:48:33;;;;;;;7.07;1.60;;;13.80;99.90;;;;;;5098380;28;20199;-84
2024/02/15 06:50:59;;;;;;;5.53;2.03;;;13.80;99.90;;;;;;5098272;28;20227;-84
2024/02/15 06:53:24;;;;;;;4.00;1.40;;;13.80;99.90;;;;;;5098783;28;20169;-85
2024/02/15 06:55:50;;;;;;;2.83;1.40;;;13.80;99.90;;;;;;5098069;28;20209;-85
2024/02/15 06:58:17;;;;;;;4.20;1.73;;;13.80;99.90;;;;;;5098817;28;20662;-82
2024/02/15 07:00:43;;;;;;;4.37;1.97;;;13.80;99.90;;;;;;5097902;28;20190;-83
2024/02/15 07:03:10;;;;;;;5.37;1.70;;;13.80;99.90;;;;;;5098408;28;20543;-85
2024/02/15 07:05:38;;;;;;;6.83;1.80;;;13.80;99.90;;;;;;5097949;28;20174;-83
2024/02/15 07:08:05;;;;;;;6.80;1.90;;;13.80;99.90;;;;;;5098024;28;20167;-85
2024/02/15 07:10:31;;;;;;;4.70;1.90;;;13.80;99.90;;;;;;5097719;28;20171;-84
2024/02/15 07:12:57;;;;;;;3.77;1.87;;;13.90;99.90;;;;;;5116583;28;20550;-85
2024/02/15 07:15:23;;;;;;;6.33;2.10;;;13.90;99.90;;;;;;5097883;28;20229;-84
2024/02/15 07:17:48;;;;;;;4.77;1.80;;;13.90;99.90;;;;;;5097712;28;20202;-84
2024/02/15 07:20:17;;;;;;;4.30;1.90;;;13.90;99.90;;;;;;5097813;28;20177;-84
2024/02/15 07:22:45;;;;;;;4.23;1.83;;;13.90;99.90;;;;;;5097435;28;20267;-86
2024/02/15 07:25:11;;;;;;;6.73;2.10;;;13.90;99.90;;;;;;5096823;28;20270;-84
2024/02/15 07:27:37;;;;;;;3.77;1.63;;;13.90;99.90;;;;;;5097001;28;20180;-84
2024/02/15 07:30:04;;;;;;;5.40;1.63;;;13.90;99.90;;;;;;5097142;28;20170;-82
2024/02/15 07:32:31;;;;;;;3.83;1.73;;;13.90;99.90;;;;;;5097314;28;20197;-84
2024/02/15 07:34:57;;;;;;;7.63;2.27;;;13.90;99.90;;;;;;5097218;28;20673;-84
2024/02/15 07:37:26;;;;;;;3.40;1.33;;;14.10;99.90;;;;;;5097614;28;20181;-84
2024/02/15 07:39:52;;;;;;;6.37;1.80;;;14.00;99.90;;;;;;5115103;28;20699;-83
2024/02/15 07:42:18;;;;;;;5.43;2.47;;;14.00;99.90;;;;;;5097507;28;20176;-85
2024/02/15 07:44:43;;;;;;;3.67;1.80;;;14.10;99.90;;;;;;5097297;28;20520;-84
2024/02/15 07:47:10;;;;;;;5.07;2.63;;;14.10;99.90;;;;;;5097044;28;20330;-84
2024/02/15 07:49:36;;;;;;;4.33;2.10;;;14.20;99.90;;;;;;5115189;28;20536;-86
2024/02/15 07:52:04;;;;;;;5.13;1.87;;;14.30;99.90;;;;;;5096876;28;20183;-82
2024/02/15 07:54:30;;;;;;;4.33;1.90;;;14.30;99.90;;;;;;5096665;28;20658;-85
2024/02/15 07:56:58;;;;;;;4.17;2.20;;;14.30;99.90;;;;;;5096749;28;20221;-84
2024/02/15 07:59:23;;;;;;;6.63;2.00;;;14.30;99.90;;;;;;5095854;28;20194;-84
2024/02/15 08:01:52;;;;;;;5.63;2.47;;;14.30;99.90;;;;;;5096634;28;20532;-85
2024/02/15 08:04:19;;;;;;;4.80;2.30;;;14.30;99.90;;;;;;5097381;28;20269;-83
2024/02/15 08:06:44;;;;;;;4.33;1.93;;;14.30;99.90;;;;;;5116107;28;20170;-84
2024/02/15 08:09:13;;;;;;;3.63;2.13;;;14.40;99.90;;;;;;5117865;28;20173;-83
2024/02/15 08:11:40;;;;;;;4.80;2.10;;;14.40;99.90;;;;;;5098886;28;20618;-84
2024/02/15 08:14:09;;;;;;;3.77;1.80;;;14.40;99.90;;;;;;5099439;28;20181;-84
2024/02/15 08:16:36;;;;;;;4.03;2.00;;;14.50;99.90;;;;;;5098915;28;20301;-84
2024/02/15 08:19:03;;;;;;;4.27;1.87;;;14.60;99.90;;;;;;5098771;28;20264;-84
2024/02/15 08:21:32;;;;;;;5.57;1.80;;;14.60;99.90;;;;;;5096345;28;20175;-84
2024/02/15 08:23:59;;;;;;;6.57;1.87;;;14.60;99.90;;;;;;5096392;28;20312;-84
2024/02/15 08:26:25;;;;;;;5.73;2.13;;;14.60;99.90;;;;;;5096328;28;20555;-85
2024/02/15 08:28:52;;;;;;;5.43;2.17;;;14.60;99.90;;;;;;5096437;28;20171;-84
2024/02/15 08:31:19;;;;;;;5.50;2.30;;;14.60;99.90;;;;;;5096428;28;20228;-84
2024/02/15 08:33:45;;;;;;;7.37;1.90;;;14.60;99.90;;;;;;5096647;28;20182;-87
2024/02/15 08:36:13;;;;;;;6.80;2.20;;;14.60;99.90;;;;;;5095737;28;20243;-84
2024/02/15 08:38:39;;;;;;;7.83;2.50;;;14.60;99.90;;;;;;5096388;28;20268;-85
2024/02/15 08:41:06;;;;;;;10.80;2.07;;;14.70;99.90;;;;;;5096040;28;20175;-84
2024/02/15 08:43:32;;;;;;;6.40;1.90;;;14.70;99.90;;;;;;5096305;28;20222;-84
2024/02/15 08:45:58;;;;;;;4.93;1.90;;;14.80;99.90;;;;;;5095367;28;20179;-84
2024/02/15 08:48:24;;;;;;;6.83;1.93;;;14.80;99.90;;;;;;5095566;28;20242;-84
2024/02/15 08:50:53;;;;;;;9.33;2.83;;;15.10;99.90;;;;;;5095650;28;20637;-83
2024/02/15 08:53:19;;;;;;;7.27;2.30;;;15.20;99.90;;;;;;5095985;28;20177;-84
2024/02/15 08:55:45;;;;;;;4.77;2.30;;;15.20;99.90;;;;;;5095824;28;20206;-84
2024/02/15 08:58:11;;;;;;;4.23;2.27;;;15.30;99.90;;;;;;5095504;28;20180;-83
2024/02/15 09:00:41;;;;;;;6.83;2.83;;;15.30;99.90;;;;;;5095818;28;20529;-85
2024/02/15 09:03:07;;;;;;;7.10;3.27;;;15.30;99.90;;;;;;5095738;28;20180;-84
2024/02/15 09:05:32;;;;;;;7.03;2.63;;;15.30;99.90;;;;;;5095701;28;20171;-87
2024/02/15 09:07:58;;;;;;;6.97;2.30;;;15.30;99.90;;;;;;5095345;28;20681;-83
2024/02/15 09:10:24;;;;;;;8.53;2.40;;;15.30;99.90;;;;;;5095998;28;20584;-85
2024/02/15 09:12:49;;;;;;;8.47;2.63;;;15.40;99.90;;;;;;5095380;28;20266;-84
2024/02/15 09:15:15;;;;;;;6.47;2.20;;;15.30;99.90;;;;;;5095642;28;20212;-85
2024/02/15 09:17:43;;;;;;;8.57;2.60;;;15.30;99.90;;;;;;5095374;28;20290;-84
2024/02/15 09:20:14;;;;;;;8.10;3.13;;;15.30;99.90;;;;;;5094917;28;20217;-84
2024/02/15 09:22:43;;;;;;;5.60;2.43;;;15.30;99.90;;;;;;5095429;28;20258;-84
2024/02/15 09:25:10;;;;;;;5.80;2.60;;;15.30;99.90;;;;;;5113610;28;20171;-84
2024/02/15 09:27:36;;;;;;;6.67;2.37;;;15.40;99.90;;;;;;5095005;28;20217;-83
2024/02/15 09:30:03;;;;;;;9.17;2.30;;;15.40;99.90;;;;;;5113454;28;20172;-84
2024/02/15 09:32:28;;;;;;;4.90;2.07;;;15.40;99.90;;;;;;5094724;28;20279;-84
2024/02/15 09:34:54;;;;;;;5.27;2.07;;;15.50;99.90;;;;;;5095604;28;20684;-84
2024/02/15 09:37:19;;;;;;;27.70;5.73;;;15.60;99.90;;;;;;5096300;28;20238;-85
2024/02/15 09:39:46;;;;;;;35.63;7.13;;;15.60;99.90;;;;;;5095951;28;20242;-86
2024/02/15 09:42:11;;;;;;;22.23;4.33;;;15.70;99.90;;;;;;5095501;28;20178;-84
2024/02/15 09:44:40;;;;;;;8.50;2.90;;;15.80;99.90;;;;;;5095177;28;20513;-84
2024/02/15 09:47:06;;;;;;;9.17;3.03;;;15.90;99.90;;;;;;5095088;28;20188;-84
2024/02/15 09:49:39;;;;;;;6.40;2.70;;;16.00;99.90;;;;;;5094543;28;20170;-84
2024/02/15 09:52:11;;;;;;;6.37;2.13;;;16.10;99.90;;;;;;5094887;28;20163;-84
2024/02/15 09:54:40;;;;;;;6.40;2.03;;;16.10;99.90;;;;;;5094691;28;20611;-84
2024/02/15 09:57:07;;;;;;;6.20;2.00;;;16.10;99.90;;;;;;5094968;28;20176;-84
2024/02/15 09:59:36;;;;;;;4.77;2.13;;;15.90;99.90;;;;;;5094548;28;20302;-84
2024/02/15 10:02:02;;;;;;;4.60;2.07;;;15.90;99.90;;;;;;5094455;28;20186;-84
2024/02/15 10:04:28;;;;;;;5.30;1.90;;;15.90;99.90;;;;;;5093953;28;20174;-86
2024/02/15 10:06:54;;;;;;;6.40;2.23;;;16.00;99.90;;;;;;5094410;28;20653;-85
2024/02/15 10:09:30;;;;;;;6.93;1.93;;;16.00;99.90;;;;;;5094346;28;20218;-85
2024/02/15 10:12:00;;;;;;;3.37;1.67;;;16.00;99.90;;;;;;5094926;28;20178;-84
2024/02/15 10:14:28;;;;;;;5.53;1.50;;;16.00;99.90;;;;;;5094186;28;20184;-84
2024/02/15 10:16:54;;;;;;;2.97;1.67;;;16.00;99.90;;;;;;5094203;28;20217;-85
2024/02/15 10:19:25;;;;;;;5.67;1.90;;;16.00;99.90;;;;;;5093811;28;20174;-83
2024/02/15 10:21:57;;;;;;;5.53;2.00;;;16.10;99.90;;;;;;5096833;28;20172;-86
2024/02/15 10:24:27;;;;;;;5.40;2.30;;;16.20;99.90;;;;;;5100614;28;20176;-85
2024/02/15 10:27:04;;;;;;;4.80;1.83;;;16.20;99.90;;;;;;5101127;28;20246;-85
2024/02/15 10:29:30;;;;;;;4.73;2.00;;;16.40;99.90;;;;;;5101147;28;20234;-84
2024/02/15 10:32:03;;;;;;;6.77;2.40;;;16.40;3.10;;;;;;5101276;28;20628;-84
2024/02/15 10:34:31;;;;;;;6.90;2.60;;;16.40;4.70;;;;;;5101981;28;20217;-85
2024/02/15 10:37:13;;;;;;;4.93;2.13;;;16.60;3.20;;;;;;5120790;28;20205;-84
2024/02/15 10:39:38;;;;;;;4.57;2.00;;;16.60;1.00;;;;;;5101375;28;20545;-85
2024/02/15 10:42:07;;;;;;;4.33;1.60;;;16.70;1.00;;;;;;5101841;28;20191;-84
2024/02/15 10:44:35;;;;;;;3.57;1.80;;;16.70;1.00;;;;;;5100684;28;20257;-84
2024/02/15 10:47:06;;;;;;;4.87;1.80;;;16.80;1.00;;;;;;5100748;28;20238;-84
2024/02/15 10:49:31;;;;;;;4.77;1.90;;;16.90;1.00;;;;;;5100807;28;20185;-84
2024/02/15 10:51:58;;;;;;;5.40;1.80;;;17.00;1.00;;;;;;5102379;28;20171;-85
2024/02/15 10:54:31;;;;;;;3.30;1.73;;;17.10;1.00;;;;;;5101291;28;20175;-86
2024/02/15 10:57:05;;;;;;;3.70;1.67;;;17.20;1.00;;;;;;5101666;28;20266;-85
2024/02/15 10:59:52;;;;;;;2.97;1.60;;;17.30;1.00;;;;;;5101269;28;20284;-85
2024/02/15 11:02:30;;;;;;;3.60;2.10;;;17.30;1.00;;;;;;5100972;28;20186;-83
2024/02/15 11:05:11;;;;;;;5.93;1.90;;;17.40;1.00;;;;;;5100901;28;20178;-86
2024/02/15 11:07:38;;;;;;;2.80;1.60;;;17.40;1.00;;;;;;5101332;28;20567;-84
2024/02/15 11:10:08;;;;;;;6.27;1.80;;;17.30;1.00;;;;;;5100885;28;20580;-84
2024/02/15 11:12:34;;;;;;;5.13;1.97;;;17.40;1.00;;;;;;5100578;28;20198;-84
2024/02/15 11:15:03;;;;;;;2.50;1.27;;;17.30;1.00;;;;;;5101316;28;20275;-84
2024/02/15 11:17:43;;;;;;;5.13;1.93;;;17.30;1.00;;;;;;5118848;28;20167;-85
2024/02/15 11:20:38;;;;;;;4.37;1.90;;;17.30;1.00;;;;;;5100893;28;20178;-83
2024/02/15 11:23:04;;;;;;;3.67;1.47;;;17.30;1.00;;;;;;5090064;28;20183;-88
2024/02/15 11:25:34;;;;;;;5.57;2.17;;;17.40;1.00;;;;;;5100707;28;20251;-87
2024/02/15 11:28:29;;;;;;;5.80;1.97;;;17.60;1.00;;;;;;5101094;28;20717;-86
2024/02/15 11:30:58;;;;;;;4.80;1.70;;;17.70;1.00;;;;;;5100491;28;20702;-85
2024/02/15 11:33:32;;;;;;;4.63;1.97;;;17.90;1.00;;;;;;5098420;28;20247;-84
2024/02/15 11:36:05;;;;;;;10.53;2.03;;;18.00;1.00;;;;;;5097703;28;20228;-85
2024/02/15 11:38:31;;;;;;;5.33;1.80;;;18.00;1.00;;;;;;5097300;28;20602;-85
2024/02/15 11:40:57;;;;;;;5.33;2.30;;;18.00;1.00;;;;;;5098249;28;20174;-85
2024/02/15 11:43:56;;;;;;;4.90;1.80;;;18.10;1.00;;;;;;5103967;28;20173;-86
2024/02/15 11:46:25;;;;;;;6.03;1.93;;;17.90;1.00;;;;;;5130933;28;20180;-82
2024/02/15 11:48:55;;;;;;;3.87;1.80;;;17.80;1.00;;;;;;5103647;28;20177;-85
2024/02/15 11:51:44;;;;;;;6.17;1.93;;;17.70;1.00;;;;;;5097327;28;20230;-85
2024/02/15 11:54:11;;;;;;;6.90;1.80;;;17.70;1.00;;;;;;5097746;28;20173;-84
2024/02/15 11:57:07;;;;;;;5.87;1.60;;;17.80;1.00;;;;;;5096926;28;20218;-85
2024/02/15 11:59:53;;;;;;;3.33;1.50;;;17.80;1.00;;;;;;5097147;28;20195;-84
2024/02/15 12:18:52;;;;;;;3.90;1.80;;;17.70;1.00;;;;;;5115209;28;20198;-85
2024/02/15 12:21:26;;;;;;;3.67;1.60;;;17.60;1.00;;;;;;5096534;28;20187;-85
2024/02/15 12:23:52;;;;;;;6.07;2.10;;;17.50;1.00;;;;;;5096928;28;20272;-85
2024/02/15 12:26:23;;;;;;;4.50;1.97;;;17.50;1.00;;;;;;5096792;28;20335;-85
2024/02/15 12:28:54;;;;;;;7.53;2.13;;;17.60;1.00;;;;;;5096715;28;20205;-85
2024/02/15 12:31:20;;;;;;;5.10;2.57;;;17.70;1.00;;;;;;5096657;28;20251;-85
2024/02/15 12:33:48;;;;;;;4.90;2.13;;;17.80;1.00;;;;;;5096278;28;20180;-85
2024/02/15 12:36:14;;;;;;;7.37;2.67;;;17.90;1.00;;;;;;5095877;28;20205;-83
2024/02/15 12:38:42;;;;;;;6.60;2.67;;;17.90;1.00;;;;;;5114713;28;20620;-85
2024/02/15 12:41:20;;;;;;;5.63;2.43;;;18.10;1.00;;;;;;5097073;28;20222;-86
2024/02/15 12:43:51;;;;;;;8.57;3.93;;;18.20;1.00;;;;;;5098948;28;20268;-85
2024/02/15 12:46:19;;;;;;;6.70;3.30;;;18.40;1.00;;;;;;5101654;28;20186;-86
2024/02/15 12:48:45;;;;;;;4.73;2.63;;;18.40;1.00;;;;;;5096153;28;20174;-85
2024/02/15 12:51:17;;;;;;;8.27;2.70;;;18.40;1.00;;;;;;5105541;28;20262;-85
2024/02/15 12:53:43;;;;;;;7.70;2.57;;;18.50;1.00;;;;;;5095474;28;20193;-83
2024/02/15 12:56:09;;;;;;;6.60;2.73;;;18.70;1.00;;;;;;5102978;28;20206;-85
2024/02/15 12:58:35;;;;;;;7.23;2.77;;;18.70;1.00;;;;;;5109490;28;20199;-84
2024/02/15 13:01:01;;;;;;;5.10;2.80;;;18.80;1.00;;;;;;5103299;28;20190;-86
2024/02/15 13:03:27;;;;;;;4.03;2.33;;;18.90;1.00;;;;;;5096181;28;20203;-86
2024/02/15 13:05:53;;;;;;;4.73;2.10;;;19.00;1.00;;;;;;5095916;28;20640;-86
2024/02/15 13:08:19;;;;;;;5.60;2.10;;;19.00;1.00;;;;;;5095766;28;20171;-86
2024/02/15 13:10:46;;;;;;;5.47;1.93;;;18.80;1.00;;;;;;5095527;28;20264;-85
2024/02/15 13:13:17;;;;;;;7.60;2.10;;;18.70;1.00;;;;;;5095405;28;20169;-86
2024/02/15 13:15:42;;;;;;;3.67;1.97;;;18.70;1.00;;;;;;5095721;28;20253;-86
2024/02/15 13:18:13;;;;;;;3.30;1.60;;;18.70;1.00;;;;;;5095623;28;20199;-85